San Francisco, California
Current Conditions -  °F | °C
As of 11:56 PM on Wednesday 28 Jan 2015 (Local Time) from KSFO Reporting Station
Few Clouds Few Clouds  
Wind Chill: 55°   Ceiling: Unl
Heat Index: 55°   Visibility: 10mi
Dew Point: 54°   Wind: 8mph
Humidity: 96%   Direction: 280°W
Pressure: 30.17"   Gusts: NA
Location:  37.78°N, 122.42°W
Report Text: KSFO 290756Z 28007KT 10SM FEW009 13/12 A3017 RMK AO2 SLP215 T01280122 401780094
Loading
Personal Weather Stations






























Interactive Weather Map New forecast layout! Learn more

10-Day Weather Forecast

Advertisements
Track Severe Weather on mobile